createdAt,value
2022-09-09T00:00:57.179Z,1.87
2022-09-09T00:02:00.262Z,1.83
2022-09-09T00:03:03.705Z,2.10
2022-09-09T00:04:07.739Z,2.15
2022-09-09T00:05:10.523Z,1.93
2022-09-09T00:06:13.288Z,1.85
2022-09-09T00:07:15.954Z,1.77
2022-09-09T00:08:18.730Z,1.74
2022-09-09T00:09:21.501Z,1.89
2022-09-09T00:10:24.269Z,2.02
2022-09-09T00:11:31.165Z,1.95
2022-09-09T00:12:31.249Z,2.26
2022-09-09T00:13:34.022Z,2.22
2022-09-09T00:14:37.104Z,1.99
2022-09-09T00:15:39.917Z,2.40
2022-09-09T00:16:43.052Z,2.18
2022-09-09T00:17:45.827Z,2.17
2022-09-09T00:18:49.114Z,2.42
2022-09-09T00:19:52.411Z,2.19
2022-09-09T00:20:55.269Z,2.27
2022-09-09T00:21:58.458Z,2.05
2022-09-09T00:23:01.533Z,2.17
2022-09-09T00:24:04.812Z,2.08
2022-09-09T00:25:07.996Z,2.49
2022-09-09T00:26:11.380Z,2.45
2022-09-09T00:27:14.409Z,2.06
2022-09-09T00:28:17.745Z,2.45
2022-09-09T00:29:20.631Z,2.13
2022-09-09T00:30:23.799Z,1.73
2022-09-09T00:31:26.858Z,1.89
2022-09-09T00:32:30.375Z,1.98
2022-09-09T00:33:33.244Z,1.68
2022-09-09T00:34:36.834Z,1.76
2022-09-09T00:35:39.919Z,1.81
2022-09-09T00:36:43.101Z,2.00
2022-09-09T00:37:45.865Z,2.16
2022-09-09T00:38:48.847Z,1.89
2022-09-09T00:39:51.678Z,2.00
2022-09-09T00:40:54.532Z,1.95
2022-09-09T00:41:57.369Z,1.68
2022-09-09T00:43:00.557Z,1.61
2022-09-09T00:44:03.541Z,1.71
2022-09-09T00:45:06.302Z,1.65
2022-09-09T00:46:09.211Z,1.62
2022-09-09T00:47:12.247Z,1.65
2022-09-09T00:48:15.549Z,1.63
2022-09-09T00:49:18.523Z,1.85
2022-09-09T00:50:22.105Z,2.05
2022-09-09T00:51:25.091Z,1.95
2022-09-09T00:52:28.063Z,2.29
2022-09-09T00:53:30.737Z,2.22
2022-09-09T00:54:33.806Z,2.38
2022-09-09T00:55:36.886Z,2.33
2022-09-09T00:56:39.864Z,2.34
2022-09-09T00:57:42.844Z,2.50
2022-09-09T00:58:45.620Z,2.48
2022-09-09T00:59:48.700Z,2.43
2022-09-09T01:00:51.570Z,2.25
2022-09-09T01:01:54.936Z,2.89
2022-09-09T01:02:57.703Z,2.42
2022-09-09T01:04:00.817Z,2.26
2022-09-09T01:05:04.012Z,2.02
2022-09-09T01:06:07.080Z,2.26
2022-09-09T01:07:09.943Z,2.23
2022-09-09T01:08:12.824Z,1.88
2022-09-09T01:09:15.902Z,2.11
2022-09-09T01:10:19.088Z,2.46
2022-09-09T01:11:21.746Z,2.19
2022-09-09T01:12:24.419Z,1.93
2022-09-09T01:13:27.510Z,2.05
2022-09-09T01:14:30.479Z,1.93
2022-09-09T01:15:33.355Z,1.89
2022-09-09T01:16:36.587Z,2.29
2022-09-09T01:17:39.511Z,1.87
2022-09-09T01:18:42.383Z,2.03
2022-09-09T01:19:45.162Z,1.98
2022-09-09T01:20:48.028Z,1.88
2022-09-09T01:21:51.045Z,1.77
2022-09-09T01:22:54.302Z,1.79
2022-09-09T01:23:57.164Z,1.65
2022-09-09T01:25:00.144Z,1.86
2022-09-09T01:26:03.293Z,1.96
2022-09-09T01:27:06.424Z,1.55
2022-09-09T01:28:09.487Z,1.51
2022-09-09T01:29:12.464Z,1.51
2022-09-09T01:30:15.569Z,1.75
2022-09-09T01:31:18.605Z,1.58
2022-09-09T01:32:21.493Z,1.47
2022-09-09T01:33:24.465Z,1.64
2022-09-09T01:34:28.056Z,1.73
2022-09-09T01:35:31.138Z,1.78
2022-09-09T01:36:34.228Z,1.55
2022-09-09T01:37:37.917Z,1.55
2022-09-09T01:38:41.193Z,1.38
2022-09-09T01:39:44.146Z,1.42
2022-09-09T01:40:47.084Z,1.58
2022-09-09T01:41:49.726Z,1.35
2022-09-09T01:42:52.617Z,1.61
2022-09-09T01:43:55.584Z,2.09
2022-09-09T01:44:58.648Z,1.32
2022-09-09T01:46:01.743Z,1.49
2022-09-09T01:47:04.707Z,1.42
2022-09-09T01:48:07.678Z,1.20
2022-09-09T01:49:11.067Z,1.30
2022-09-09T01:50:14.048Z,1.25
2022-09-09T01:51:17.131Z,1.36
2022-09-09T01:52:20.105Z,1.29
2022-09-09T01:53:23.394Z,1.25
2022-09-09T01:54:26.369Z,1.11
2022-09-09T01:55:29.440Z,1.11
2022-09-09T01:56:32.321Z,1.10
2022-09-09T01:57:35.287Z,1.22
2022-09-09T01:58:38.169Z,1.12
2022-09-09T01:59:40.841Z,0.97
2022-09-09T02:00:43.940Z,1.19
2022-09-09T02:01:46.696Z,1.12
2022-09-09T02:02:49.418Z,1.02
2022-09-09T02:03:52.641Z,0.75
2022-09-09T02:04:55.531Z,0.96
2022-09-09T02:05:58.186Z,1.00
2022-09-09T02:07:00.858Z,0.93
2022-09-09T02:08:03.625Z,1.02
2022-09-09T02:09:06.298Z,1.04
2022-09-09T02:10:09.029Z,1.02
2022-09-09T02:11:12.049Z,0.98
2022-09-09T02:12:14.822Z,0.95
2022-09-09T02:13:17.708Z,0.93
2022-09-09T02:14:20.579Z,0.94
2022-09-09T02:15:23.656Z,1.20
2022-09-09T02:16:26.677Z,0.93
2022-09-09T02:17:29.608Z,1.14
2022-09-09T02:18:32.657Z,0.92
2022-09-09T02:19:35.349Z,0.80
2022-09-09T02:20:38.320Z,0.77
2022-09-09T02:21:41.101Z,0.75
2022-09-09T02:22:44.080Z,0.82
2022-09-09T02:23:46.849Z,0.88
2022-09-09T02:24:49.620Z,0.85
2022-09-09T02:25:52.291Z,0.87
2022-09-09T02:26:55.063Z,0.85
2022-09-09T02:27:58.044Z,0.80
2022-09-09T02:29:00.909Z,0.99
2022-09-09T02:30:03.992Z,0.84
2022-09-09T02:31:07.164Z,0.75
2022-09-09T02:32:09.961Z,0.82
2022-09-09T02:33:12.928Z,0.88
2022-09-09T02:34:15.904Z,0.76
2022-09-09T02:35:18.886Z,0.88
2022-09-09T02:36:21.753Z,0.75
2022-09-09T02:37:24.734Z,0.73
2022-09-09T02:38:27.820Z,0.70
2022-09-09T02:39:30.637Z,0.75
2022-09-09T02:40:33.558Z,0.72
2022-09-09T02:41:36.325Z,0.72
2022-09-09T02:42:39.206Z,0.84
2022-09-09T02:43:41.889Z,0.80
2022-09-09T02:44:44.746Z,0.80
2022-09-09T02:45:47.599Z,0.88
2022-09-09T02:46:50.299Z,0.82
2022-09-09T02:47:53.067Z,0.72
2022-09-09T02:48:55.629Z,0.60
2022-09-09T02:49:58.608Z,0.78
2022-09-09T02:51:01.602Z,0.82
2022-09-09T02:52:04.159Z,0.85
2022-09-09T02:53:07.027Z,0.80
2022-09-09T02:54:09.907Z,0.88
2022-09-09T02:55:12.882Z,0.89
2022-09-09T02:56:15.869Z,0.68
2022-09-09T02:57:18.839Z,0.89
2022-09-09T02:58:21.819Z,0.82
2022-09-09T02:59:24.587Z,0.66
2022-09-09T03:00:27.356Z,0.72
2022-09-09T03:01:30.085Z,0.72
2022-09-09T03:02:32.894Z,0.95
2022-09-09T03:03:35.582Z,0.82
2022-09-09T03:04:38.547Z,0.73
2022-09-09T03:05:41.218Z,0.75
2022-09-09T03:06:44.100Z,0.63
2022-09-09T03:07:46.768Z,0.82
2022-09-09T03:08:49.885Z,0.80
2022-09-09T03:09:52.523Z,0.80
2022-09-09T03:10:55.179Z,0.83
2022-09-09T03:11:57.966Z,0.98
2022-09-09T03:13:00.823Z,0.72
2022-09-09T03:14:03.599Z,0.82
2022-09-09T03:15:07.498Z,0.74
2022-09-09T03:16:10.313Z,1.10
2022-09-09T03:17:13.146Z,1.74
2022-09-09T03:18:15.818Z,2.19
2022-09-09T03:19:18.692Z,2.32
2022-09-09T03:20:21.366Z,2.15
2022-09-09T03:21:24.027Z,2.09
2022-09-09T03:22:26.592Z,2.17
2022-09-09T03:23:29.160Z,2.06
2022-09-09T03:24:31.830Z,1.94
2022-09-09T03:25:34.497Z,2.02
2022-09-09T03:26:37.171Z,2.12
2022-09-09T03:27:39.849Z,1.89
2022-09-09T03:28:42.407Z,1.95
2022-09-09T03:29:45.279Z,2.15
2022-09-09T03:30:48.062Z,1.88
2022-09-09T03:31:50.800Z,1.84
2022-09-09T03:32:53.610Z,2.46
2022-09-09T03:33:56.278Z,2.08
2022-09-09T03:34:59.143Z,2.07
2022-09-09T03:36:02.019Z,1.88
2022-09-09T03:37:04.902Z,1.76
2022-09-09T03:38:07.767Z,1.78
2022-09-09T03:39:10.641Z,1.67
2022-09-09T03:40:13.624Z,1.83
2022-09-09T03:41:16.605Z,1.85
2022-09-09T03:42:19.376Z,1.93
2022-09-09T03:43:22.655Z,2.11
2022-09-09T03:44:25.426Z,2.05
2022-09-09T03:45:28.461Z,2.21
2022-09-09T03:46:31.272Z,2.00
2022-09-09T03:47:34.267Z,1.82
2022-09-09T03:48:37.619Z,1.82
2022-09-09T03:49:40.363Z,2.10
2022-09-09T03:50:43.193Z,2.08
2022-09-09T03:51:46.005Z,1.98
2022-09-09T03:52:48.729Z,2.22
2022-09-09T03:53:51.614Z,2.28
2022-09-09T03:54:54.283Z,2.15
2022-09-09T03:55:56.856Z,2.13
2022-09-09T03:56:59.524Z,2.05
2022-09-09T03:58:02.178Z,1.95
2022-09-09T03:59:05.361Z,2.00
2022-09-09T04:00:08.032Z,2.25
2022-09-09T04:01:11.062Z,1.92
2022-09-09T04:02:14.071Z,1.98
2022-09-09T04:03:16.758Z,1.87
2022-09-09T04:04:19.422Z,1.87
2022-09-09T04:05:21.990Z,1.58
2022-09-09T04:06:24.927Z,1.85
2022-09-09T04:07:27.641Z,1.68
2022-09-09T04:08:30.317Z,1.36
2022-09-09T04:09:33.507Z,0.95
2022-09-09T04:10:36.266Z,1.33
2022-09-09T04:11:38.939Z,2.52
2022-09-09T04:12:41.832Z,1.76
2022-09-09T04:13:44.490Z,1.12
2022-09-09T04:14:47.983Z,1.07
2022-09-09T04:15:50.844Z,1.01
2022-09-09T04:16:53.441Z,1.05
2022-09-09T04:17:56.076Z,1.14
2022-09-09T04:18:59.065Z,1.28
2022-09-09T04:20:02.254Z,1.17
2022-09-09T04:21:05.012Z,0.93
2022-09-09T04:22:07.887Z,0.97
2022-09-09T04:23:11.067Z,0.98
2022-09-09T04:24:13.745Z,0.82
2022-09-09T04:25:17.125Z,0.87
2022-09-09T04:26:20.110Z,0.87
2022-09-09T04:27:23.075Z,0.83
2022-09-09T04:28:26.257Z,0.71
2022-09-09T04:29:29.239Z,0.75
2022-09-09T04:30:32.020Z,0.85
2022-09-09T04:31:34.943Z,0.78
2022-09-09T04:32:37.762Z,0.75
2022-09-09T04:33:40.736Z,0.70
2022-09-09T04:34:43.712Z,0.66
2022-09-09T04:35:46.279Z,0.68
2022-09-09T04:36:48.981Z,0.67
2022-09-09T04:37:51.520Z,0.54
2022-09-09T04:38:54.183Z,0.69
2022-09-09T04:39:56.924Z,0.70
2022-09-09T04:40:59.931Z,0.65
2022-09-09T04:42:02.811Z,0.66
2022-09-09T04:43:05.793Z,0.62
2022-09-09T04:44:17.269Z,0.60
2022-09-09T04:45:20.141Z,0.52
2022-09-09T04:46:23.018Z,0.77
2022-09-09T04:47:25.783Z,0.59
2022-09-09T04:48:28.818Z,0.75
2022-09-09T04:49:31.642Z,0.69
2022-09-09T04:50:34.819Z,0.68
2022-09-09T04:51:37.692Z,0.65
2022-09-09T04:52:40.570Z,0.64
2022-09-09T04:53:43.135Z,0.61
2022-09-09T04:54:46.301Z,0.67
2022-09-09T04:55:48.985Z,0.66
2022-09-09T04:56:51.865Z,0.64
2022-09-09T04:57:54.530Z,0.78
2022-09-09T04:58:57.202Z,0.73
2022-09-09T04:59:59.870Z,0.70
2022-09-09T05:01:02.748Z,0.64
2022-09-09T05:02:05.404Z,0.68
2022-09-09T05:03:07.983Z,0.82
2022-09-09T05:04:10.659Z,1.02
2022-09-09T05:05:13.218Z,0.73
2022-09-09T05:06:15.884Z,0.95
2022-09-09T05:07:18.454Z,0.71
2022-09-09T05:08:21.127Z,0.74
2022-09-09T05:09:23.699Z,0.71
2022-09-09T05:10:26.580Z,0.83
2022-09-09T05:11:29.250Z,0.87
2022-09-09T05:12:32.021Z,0.84
2022-09-09T05:13:38.371Z,0.92
2022-09-09T05:14:39.087Z,0.84
2022-09-09T05:15:41.655Z,1.02
2022-09-09T05:16:44.577Z,0.79
2022-09-09T05:17:47.214Z,0.74
2022-09-09T05:18:50.195Z,0.72
2022-09-09T05:19:52.960Z,0.70
2022-09-09T05:20:55.832Z,0.67
2022-09-09T05:21:58.603Z,0.75
2022-09-09T05:23:01.388Z,0.66
2022-09-09T05:24:03.941Z,0.46
2022-09-09T05:25:06.823Z,0.54
2022-09-09T05:26:09.806Z,0.62
2022-09-09T05:27:12.891Z,0.63
2022-09-09T05:28:15.850Z,0.71
2022-09-09T05:29:18.720Z,0.60
2022-09-09T05:30:21.700Z,0.60
2022-09-09T05:31:26.998Z,0.62
2022-09-09T05:32:29.209Z,0.77
2022-09-09T05:33:32.168Z,0.80
2022-09-09T05:34:35.154Z,0.70
2022-09-09T05:35:38.224Z,0.71
2022-09-09T05:36:41.307Z,0.78
2022-09-09T05:37:43.970Z,0.72
2022-09-09T05:38:46.843Z,0.74
2022-09-09T05:39:49.556Z,0.78
2022-09-09T05:40:52.596Z,0.67
2022-09-09T05:41:55.373Z,0.68
2022-09-09T05:42:58.138Z,0.72
2022-09-09T05:44:01.016Z,0.64
2022-09-09T05:45:03.793Z,0.68
2022-09-09T05:46:06.864Z,0.62
2022-09-09T05:47:10.154Z,0.63
2022-09-09T05:48:12.924Z,0.65
2022-09-09T05:49:16.019Z,0.60
2022-09-09T05:50:18.981Z,0.79
2022-09-09T05:51:21.858Z,0.79
2022-09-09T05:52:24.938Z,1.18
2022-09-09T05:53:27.600Z,1.64
2022-09-09T05:54:30.385Z,2.03
2022-09-09T05:55:33.151Z,1.65
2022-09-09T05:56:36.029Z,1.87
2022-09-09T05:57:38.897Z,1.90
2022-09-09T05:58:41.818Z,1.84
2022-09-09T05:59:44.541Z,2.09
2022-09-09T06:00:47.415Z,2.34
2022-09-09T06:01:50.182Z,2.33
2022-09-09T06:02:53.013Z,2.06
2022-09-09T06:03:55.945Z,1.85
2022-09-09T06:05:00.610Z,2.26
2022-09-09T06:06:03.028Z,2.37
2022-09-09T06:07:06.105Z,2.31
2022-09-09T06:08:09.180Z,2.12
2022-09-09T06:09:12.153Z,2.29
2022-09-09T06:10:15.029Z,2.50
2022-09-09T06:11:17.807Z,1.98
2022-09-09T06:12:20.471Z,2.41
2022-09-09T06:13:23.145Z,2.44
2022-09-09T06:14:26.022Z,2.27
2022-09-09T06:15:28.788Z,2.67
2022-09-09T06:16:31.812Z,2.89
2022-09-09T06:17:34.741Z,2.74
2022-09-09T06:18:37.776Z,2.43
2022-09-09T06:19:40.701Z,2.67
2022-09-09T06:20:43.786Z,2.71
2022-09-09T06:21:46.446Z,2.51
2022-09-09T06:22:49.523Z,2.51
2022-09-09T06:23:52.300Z,2.65
2022-09-09T06:24:55.079Z,2.85
2022-09-09T06:25:57.842Z,3.01
2022-09-09T06:27:00.852Z,2.90
2022-09-09T06:28:03.900Z,2.87
2022-09-09T06:29:06.887Z,2.96
2022-09-09T06:30:09.759Z,3.05
2022-09-09T06:31:12.633Z,2.99
2022-09-09T06:32:15.296Z,2.60
2022-09-09T06:33:18.282Z,2.50
2022-09-09T06:34:21.457Z,2.72
2022-09-09T06:35:24.429Z,3.63
2022-09-09T06:36:27.301Z,2.52
2022-09-09T06:37:30.074Z,2.71
2022-09-09T06:38:33.095Z,2.95
2022-09-09T06:39:35.892Z,2.55
2022-09-09T06:40:38.810Z,2.64
2022-09-09T06:41:41.368Z,2.83
2022-09-09T06:42:44.353Z,2.58
2022-09-09T06:43:46.909Z,3.00
2022-09-09T06:44:50.301Z,2.57
2022-09-09T06:45:53.073Z,2.72
2022-09-09T06:46:55.920Z,2.79
2022-09-09T06:47:58.523Z,2.80
2022-09-09T06:49:01.420Z,3.19
2022-09-09T06:50:04.065Z,2.82
2022-09-09T06:51:07.029Z,3.15
2022-09-09T06:52:10.431Z,3.16
2022-09-09T06:53:13.302Z,2.79
2022-09-09T06:54:16.172Z,2.68
2022-09-09T06:55:18.948Z,2.85
2022-09-09T06:56:21.617Z,2.58
2022-09-09T06:57:36.853Z,2.73
2022-09-09T06:58:28.600Z,2.49
2022-09-09T06:59:31.468Z,2.57
2022-09-09T07:00:34.333Z,2.59
2022-09-09T07:01:36.988Z,2.98
2022-09-09T07:02:39.577Z,2.58
2022-09-09T07:03:42.454Z,2.47
2022-09-09T07:04:45.224Z,2.68
2022-09-09T07:05:49.223Z,2.62
2022-09-09T07:06:52.129Z,2.96
2022-09-09T07:07:54.778Z,2.68
2022-09-09T07:08:57.551Z,2.81
2022-09-09T07:10:00.216Z,2.53
2022-09-09T07:11:02.883Z,3.02
2022-09-09T07:12:05.553Z,2.69
2022-09-09T07:13:08.250Z,2.91
2022-09-09T07:14:10.789Z,2.89
2022-09-09T07:15:13.459Z,3.16
2022-09-09T07:16:16.413Z,3.01
2022-09-09T07:17:19.116Z,3.12
2022-09-09T07:18:21.786Z,3.02
2022-09-09T07:19:24.341Z,3.49
2022-09-09T07:20:27.016Z,3.26
2022-09-09T07:21:29.806Z,3.28
2022-09-09T07:22:32.764Z,3.31
2022-09-09T07:23:36.373Z,3.51
2022-09-09T07:24:39.447Z,3.16
2022-09-09T07:25:42.306Z,3.30
2022-09-09T07:26:44.983Z,3.85
2022-09-09T07:27:47.647Z,3.42
2022-09-09T07:28:50.632Z,3.66
2022-09-09T07:29:54.839Z,3.98
2022-09-09T07:30:57.517Z,4.06
2022-09-09T07:32:00.585Z,3.55
2022-09-09T07:33:03.762Z,4.23
2022-09-09T07:34:06.653Z,3.56
2022-09-09T07:35:09.510Z,3.89
2022-09-09T07:36:12.287Z,4.21
2022-09-09T07:37:15.266Z,4.30
2022-09-09T07:38:18.244Z,4.25
2022-09-09T07:39:21.125Z,4.05
2022-09-09T07:40:24.298Z,4.18
2022-09-09T07:41:27.278Z,4.36
2022-09-09T07:42:30.364Z,4.61
2022-09-09T07:43:33.328Z,4.75
2022-09-09T07:44:36.211Z,4.72
2022-09-09T07:45:39.096Z,4.74
2022-09-09T07:46:41.791Z,5.03
2022-09-09T07:47:44.415Z,4.82
2022-09-09T07:48:47.186Z,4.89
2022-09-09T07:49:49.861Z,5.02
2022-09-09T07:50:52.636Z,4.98
2022-09-09T07:51:55.402Z,5.36
2022-09-09T07:52:58.177Z,5.54
2022-09-09T07:54:00.904Z,4.82
2022-09-09T07:55:04.025Z,4.74
2022-09-09T07:56:07.017Z,5.04
2022-09-09T07:57:09.879Z,5.05
2022-09-09T07:58:12.963Z,5.29
2022-09-09T07:59:15.957Z,5.19
2022-09-09T08:00:19.018Z,4.86
2022-09-09T08:01:21.832Z,5.22
2022-09-09T08:02:24.564Z,4.49
2022-09-09T08:03:27.511Z,4.43
2022-09-09T08:04:30.310Z,4.66
2022-09-09T08:05:33.190Z,5.02
2022-09-09T08:06:36.052Z,5.22
2022-09-09T08:07:39.037Z,4.81
2022-09-09T08:08:42.215Z,5.09
2022-09-09T08:09:44.994Z,4.83
2022-09-09T08:10:47.864Z,4.76
2022-09-09T08:11:50.531Z,4.62
2022-09-09T08:13:14.699Z,4.88
2022-09-09T08:14:02.130Z,5.33
2022-09-09T08:15:01.825Z,4.91
2022-09-09T08:16:04.641Z,4.51
2022-09-09T08:17:07.365Z,4.67
2022-09-09T08:18:09.933Z,4.78
2022-09-09T08:19:12.493Z,4.62
2022-09-09T08:20:15.297Z,5.00
2022-09-09T08:21:19.068Z,4.24
2022-09-09T08:22:21.945Z,4.05
2022-09-09T08:23:25.021Z,3.82
2022-09-09T08:24:27.593Z,4.30
2022-09-09T08:25:30.475Z,3.60
2022-09-09T08:26:33.235Z,3.13
2022-09-09T08:27:36.316Z,3.49
2022-09-09T08:28:39.294Z,3.28
2022-09-09T08:29:42.083Z,3.02
2022-09-09T08:30:44.938Z,2.99
2022-09-09T08:31:47.606Z,3.03
2022-09-09T08:32:53.362Z,2.62
2022-09-09T08:33:54.888Z,2.75
2022-09-09T08:35:01.129Z,2.74
2022-09-09T08:36:01.890Z,2.26
2022-09-09T08:37:04.745Z,2.48
2022-09-09T08:38:10.945Z,2.37
2022-09-09T08:39:12.165Z,2.30
2022-09-09T08:40:15.168Z,2.09
2022-09-09T08:41:18.081Z,2.27
2022-09-09T08:42:20.750Z,1.90
2022-09-09T08:43:23.430Z,2.23
2022-09-09T08:44:26.204Z,2.03
2022-09-09T08:45:28.969Z,1.77
2022-09-09T08:46:31.915Z,1.82
2022-09-09T08:47:34.519Z,1.92
2022-09-09T08:48:37.382Z,1.78
2022-09-09T08:49:40.088Z,1.72
2022-09-09T08:50:42.731Z,1.72
2022-09-09T08:51:45.504Z,1.69
2022-09-09T08:52:48.503Z,1.67
2022-09-09T08:53:51.175Z,1.61
2022-09-09T08:54:53.914Z,1.55
2022-09-09T08:55:56.590Z,1.42
2022-09-09T08:56:59.171Z,1.48
2022-09-09T08:58:04.863Z,1.53
2022-09-09T08:59:13.124Z,1.51
2022-09-09T09:00:15.667Z,1.52
2022-09-09T09:01:18.651Z,1.34
2022-09-09T09:02:21.323Z,1.42
2022-09-09T09:03:29.359Z,1.24
2022-09-09T09:04:31.904Z,1.33
2022-09-09T09:05:34.646Z,1.39
2022-09-09T09:06:37.286Z,1.22
2022-09-09T09:07:39.882Z,1.46
2022-09-09T09:08:42.867Z,1.38
2022-09-09T09:09:45.521Z,1.30
2022-09-09T09:10:48.504Z,1.22
2022-09-09T09:11:51.684Z,1.15
2022-09-09T09:12:54.368Z,1.40
2022-09-09T09:13:57.026Z,1.40
2022-09-09T09:14:59.700Z,1.43
2022-09-09T09:16:02.628Z,1.32
2022-09-09T09:17:05.772Z,1.44
2022-09-09T09:18:10.265Z,1.27
2022-09-09T09:19:13.040Z,1.44
2022-09-09T09:20:15.929Z,1.51
2022-09-09T09:21:18.822Z,1.32
2022-09-09T09:22:21.971Z,1.55
2022-09-09T09:23:24.848Z,1.51
2022-09-09T09:24:27.920Z,1.55
2022-09-09T09:25:30.694Z,1.84
2022-09-09T09:26:33.676Z,1.60
2022-09-09T09:27:37.054Z,1.40
2022-09-09T09:28:40.036Z,1.51
2022-09-09T09:30:10.511Z,1.55
2022-09-09T09:30:47.069Z,1.74
2022-09-09T09:31:49.683Z,2.02
2022-09-09T09:32:52.352Z,2.58
2022-09-09T09:33:55.022Z,2.15
2022-09-09T09:34:59.712Z,2.30
2022-09-09T09:36:02.413Z,2.07
2022-09-09T09:37:06.300Z,1.95
2022-09-09T09:40:17.898Z,1.76
2022-09-09T09:41:20.674Z,1.88
2022-09-09T09:42:24.046Z,1.84
2022-09-09T09:43:27.037Z,1.95
2022-09-09T09:44:29.737Z,2.05
2022-09-09T09:45:32.590Z,2.15
2022-09-09T09:46:35.421Z,2.08
2022-09-09T09:47:38.334Z,1.92
2022-09-09T09:48:41.214Z,2.08
2022-09-09T09:49:43.771Z,2.02
2022-09-09T09:50:49.085Z,1.80
2022-09-09T09:51:51.685Z,1.66
2022-09-09T09:52:54.344Z,1.52
2022-09-09T09:53:57.017Z,1.72
2022-09-09T09:55:01.846Z,1.61
2022-09-09T09:56:04.198Z,1.83
2022-09-09T09:57:07.110Z,2.14
2022-09-09T09:58:09.845Z,1.68
2022-09-09T09:59:18.007Z,1.62
2022-09-09T10:00:17.271Z,1.59
2022-09-09T10:01:20.229Z,1.52
2022-09-09T10:02:23.182Z,1.70
2022-09-09T10:03:26.162Z,1.70
2022-09-09T10:04:29.283Z,1.51
2022-09-09T10:05:36.132Z,1.77
2022-09-09T10:06:36.266Z,1.54
2022-09-09T10:07:38.784Z,1.52
2022-09-09T10:08:41.484Z,1.87
2022-09-09T10:09:44.228Z,1.53
2022-09-09T10:10:48.119Z,1.64
2022-09-09T10:11:50.996Z,1.30
2022-09-09T10:12:53.671Z,1.41
2022-09-09T10:13:56.445Z,1.54
2022-09-09T10:14:59.120Z,1.57
2022-09-09T10:16:05.179Z,1.52
2022-09-09T10:17:05.887Z,1.72
2022-09-09T10:18:08.667Z,1.77
2022-09-09T10:19:11.552Z,1.46
2022-09-09T10:20:14.625Z,1.62
2022-09-09T10:21:17.487Z,1.68
2022-09-09T10:22:20.548Z,1.57
2022-09-09T10:23:23.437Z,1.71
2022-09-09T10:24:26.348Z,1.90
2022-09-09T10:25:29.596Z,1.82
2022-09-09T10:26:38.231Z,1.84
2022-09-09T10:27:41.392Z,1.85
2022-09-09T10:28:44.269Z,1.62
2022-09-09T10:29:46.848Z,1.70
2022-09-09T10:30:49.896Z,1.76
2022-09-09T10:31:52.584Z,1.65
2022-09-09T10:32:55.160Z,1.85
2022-09-09T10:33:57.945Z,1.93
2022-09-09T10:35:00.701Z,1.75
2022-09-09T10:36:03.778Z,1.69
2022-09-09T10:37:06.647Z,1.79
2022-09-09T10:38:09.419Z,1.88
2022-09-09T10:39:12.084Z,1.47
2022-09-09T10:40:15.133Z,1.59
2022-09-09T10:41:18.066Z,1.70
2022-09-09T10:42:21.120Z,1.56
2022-09-09T10:43:24.104Z,1.36
2022-09-09T10:44:27.185Z,1.65
2022-09-09T10:45:30.163Z,1.96
2022-09-09T10:46:33.235Z,1.49
2022-09-09T10:47:36.107Z,1.32
2022-09-09T10:48:38.985Z,1.50
2022-09-09T10:49:41.757Z,1.62
2022-09-09T10:51:03.528Z,1.43
2022-09-09T10:51:48.940Z,1.45
2022-09-09T10:52:51.916Z,1.39
2022-09-09T10:53:54.585Z,1.48
2022-09-09T10:54:57.257Z,1.35
2022-09-09T10:55:59.947Z,1.47
2022-09-09T10:57:02.695Z,1.51
2022-09-09T10:58:05.589Z,1.44
2022-09-09T10:59:08.767Z,1.08
2022-09-09T11:00:11.633Z,1.33
2022-09-09T11:01:14.546Z,1.41
2022-09-09T11:02:17.485Z,1.10
2022-09-09T11:03:20.353Z,1.34
2022-09-09T11:04:23.269Z,1.28
2022-09-09T11:05:26.102Z,1.08
2022-09-09T11:06:28.894Z,1.30
2022-09-09T11:07:31.967Z,1.27
2022-09-09T11:08:34.868Z,1.26
2022-09-09T11:09:37.499Z,1.21
2022-09-09T11:10:40.114Z,1.30
2022-09-09T11:11:42.884Z,1.26
2022-09-09T11:12:45.613Z,1.05
2022-09-09T11:13:51.416Z,1.29
2022-09-09T11:14:53.919Z,1.28
2022-09-09T11:15:56.694Z,1.25
2022-09-09T11:16:59.429Z,1.15
2022-09-09T11:18:02.031Z,1.16
2022-09-09T11:19:04.705Z,1.08
2022-09-09T11:20:07.268Z,1.05
2022-09-09T11:21:09.937Z,1.07
2022-09-09T11:22:12.710Z,0.98
2022-09-09T11:23:15.891Z,0.90
2022-09-09T11:24:18.558Z,0.97
2022-09-09T11:25:21.333Z,1.07
2022-09-09T11:26:24.007Z,1.02
2022-09-09T11:27:26.691Z,1.05
2022-09-09T11:28:29.345Z,0.88
2022-09-09T11:29:32.019Z,1.02
2022-09-09T11:31:38.838Z,1.26
2022-09-09T11:32:41.458Z,1.06
2022-09-09T11:33:44.128Z,1.05
2022-09-09T11:34:46.699Z,0.98
2022-09-09T11:35:49.483Z,1.21
2022-09-09T11:36:52.241Z,1.07
2022-09-09T11:37:54.940Z,0.95
2022-09-09T11:38:57.890Z,1.25
2022-09-09T11:40:00.719Z,0.90
2022-09-09T11:41:03.346Z,1.05
2022-09-09T11:42:06.204Z,1.24
2022-09-09T11:43:08.979Z,0.91
2022-09-09T11:44:12.053Z,0.92
2022-09-09T11:45:14.928Z,0.86
2022-09-09T11:46:17.632Z,0.80
2022-09-09T11:47:20.469Z,0.93
2022-09-09T11:48:23.349Z,0.97
2022-09-09T11:49:26.436Z,0.88
2022-09-09T11:50:29.206Z,0.94
2022-09-09T11:51:32.284Z,1.01
2022-09-09T11:52:35.158Z,1.07
2022-09-09T11:53:38.027Z,0.94
2022-09-09T11:54:41.515Z,1.11
2022-09-09T11:55:44.089Z,0.99
2022-09-09T11:56:46.960Z,0.92
2022-09-09T11:57:49.835Z,0.99
2022-09-09T11:58:52.822Z,0.92
2022-09-09T11:59:55.682Z,1.01
2022-09-09T12:00:58.559Z,0.77
2022-09-09T12:02:01.286Z,0.98
2022-09-09T12:03:03.901Z,0.90
2022-09-09T12:04:07.071Z,0.89
2022-09-09T12:05:12.718Z,0.92
2022-09-09T12:06:15.624Z,1.06
2022-09-09T12:07:18.469Z,1.08
2022-09-09T12:08:21.141Z,0.93
2022-09-09T12:09:23.725Z,0.90
2022-09-09T12:10:26.283Z,0.85
2022-09-09T12:11:28.947Z,0.92
2022-09-09T12:12:31.510Z,0.89
2022-09-09T12:13:34.283Z,1.00
2022-09-09T12:14:36.970Z,0.94
2022-09-09T12:15:39.620Z,0.92
2022-09-09T12:16:42.436Z,0.78
2022-09-09T12:17:45.182Z,0.80
2022-09-09T12:18:48.009Z,0.89
2022-09-09T12:19:50.634Z,0.90
2022-09-09T12:20:53.797Z,0.67
2022-09-09T12:21:56.470Z,0.75
2022-09-09T12:22:59.231Z,0.91
2022-09-09T12:24:01.902Z,0.82
2022-09-09T12:25:04.681Z,0.68
2022-09-09T12:26:07.873Z,0.70
2022-09-09T12:27:10.838Z,0.79
2022-09-09T12:28:13.503Z,0.71
2022-09-09T12:29:16.376Z,0.75
2022-09-09T12:30:19.248Z,0.63
2022-09-09T12:31:22.328Z,0.62
2022-09-09T12:32:25.309Z,0.70
2022-09-09T12:33:28.285Z,0.68
2022-09-09T12:34:31.173Z,0.69
2022-09-09T12:35:34.038Z,0.65
2022-09-09T12:36:37.012Z,0.75
2022-09-09T12:37:39.993Z,0.76
2022-09-09T12:38:42.965Z,0.62
2022-09-09T12:39:45.582Z,0.71
2022-09-09T12:40:48.522Z,0.72
2022-09-09T12:41:51.724Z,0.69
2022-09-09T12:42:54.566Z,0.63
2022-09-09T12:43:57.345Z,0.68
2022-09-09T12:44:59.951Z,0.63
2022-09-09T12:46:02.545Z,0.69
2022-09-09T12:47:05.584Z,0.58
2022-09-09T12:48:08.326Z,0.69
2022-09-09T12:49:11.215Z,0.71
2022-09-09T12:50:13.876Z,0.81
2022-09-09T12:51:16.743Z,0.63
2022-09-09T12:52:19.634Z,0.77
2022-09-09T12:53:26.223Z,0.62
2022-09-09T12:54:26.807Z,0.74
2022-09-09T12:55:29.806Z,0.51
2022-09-09T12:56:32.549Z,0.52
2022-09-09T12:57:35.433Z,0.62
2022-09-09T12:58:38.439Z,0.58
2022-09-09T12:59:41.602Z,0.49
2022-09-09T13:00:44.254Z,0.60
2022-09-09T13:01:47.025Z,0.66
2022-09-09T13:02:50.120Z,0.47
2022-09-09T13:03:52.878Z,0.48
2022-09-09T13:04:55.752Z,0.53
2022-09-09T13:05:58.421Z,0.72
2022-09-09T13:07:01.090Z,0.72
2022-09-09T13:08:04.285Z,0.54
2022-09-09T13:09:07.196Z,0.60
2022-09-09T13:10:11.300Z,0.60
2022-09-09T13:11:14.245Z,0.64
2022-09-09T13:12:16.801Z,0.57
2022-09-09T13:13:19.892Z,0.72
2022-09-09T13:14:22.668Z,0.78
2022-09-09T13:15:25.327Z,0.67
2022-09-09T13:16:28.047Z,0.68
2022-09-09T13:17:30.663Z,0.78
2022-09-09T13:18:33.538Z,0.89
2022-09-09T13:19:36.318Z,0.80
2022-09-09T13:20:38.882Z,0.80
2022-09-09T13:21:41.464Z,0.83
2022-09-09T13:22:44.208Z,0.77
2022-09-09T13:23:46.778Z,0.62
2022-09-09T13:24:49.651Z,0.68
2022-09-09T13:25:52.221Z,0.52
2022-09-09T13:26:54.787Z,0.61
2022-09-09T13:27:57.580Z,0.80
2022-09-09T13:29:00.749Z,0.58
2022-09-09T13:30:03.417Z,0.58
2022-09-09T13:31:06.195Z,0.51
2022-09-09T13:32:08.980Z,0.50
2022-09-09T13:33:11.624Z,0.42
2022-09-09T13:34:14.500Z,0.50
2022-09-09T13:35:17.608Z,0.45
2022-09-09T13:36:20.252Z,0.34
2022-09-09T13:37:23.639Z,0.46
2022-09-09T13:38:27.717Z,0.61
2022-09-09T13:39:30.524Z,0.45
2022-09-09T13:40:33.587Z,0.59
2022-09-09T13:41:36.373Z,0.46
2022-09-09T13:42:38.930Z,0.37
2022-09-09T13:43:41.708Z,0.51
2022-09-09T13:44:44.283Z,0.62
2022-09-09T13:45:46.974Z,0.63
2022-09-09T13:46:49.607Z,1.07
2022-09-09T13:47:52.293Z,2.22
2022-09-09T13:48:54.847Z,0.55
2022-09-09T13:49:57.641Z,0.56
2022-09-09T13:51:00.286Z,0.48
2022-09-09T13:52:02.854Z,0.40
2022-09-09T13:53:05.528Z,0.46
2022-09-09T13:54:08.302Z,0.47
2022-09-09T13:55:11.378Z,0.43
2022-09-09T13:56:14.183Z,0.62
2022-09-09T13:57:17.029Z,0.47
2022-09-09T13:58:19.910Z,0.42
2022-09-09T13:59:22.684Z,0.45
2022-09-09T14:00:25.549Z,0.48
2022-09-09T14:01:29.666Z,0.40